• Join FlightAware (Why Join?)
  • Login
  • US Flag 
08:07AM EST


 

Airport Tracker/Info


-or-


 

Live Flight TrackerFlight Track Log ✈ SWA262 ✈ 27-Apr-2012 ✈ KPHX - KDTW

Flight Track Log - Related Links

Times and Time Zones

All times are in EDT time to prevent confusion due to time zone crossing. See the SWA262 flight status page for this flight to view local times or setup timezone preferences in your user account.

Time Position Orientation Groundspeed Altitude Reporting Facility
EDT Latitude Longitude Course Direction KTS MPH feet Rate Location/Type
07:08PM 33.4333 -112.0333 270° West 165 190 1,800  Level Phoenix TRACON
07:08PM 33.4333 -112.0667 287° West 202 232 3,300 2,880 Climbing Phoenix TRACON
07:09PM 33.4500 -112.1333 29° Northeast 225 259 6,500 2,880 Climbing Phoenix TRACON
07:10PM 33.5000 -112.1000 70° East 269 310 9,100 2,340 Climbing Phoenix TRACON
07:13PM 33.5622 -111.8936 76° East 332 382 14,100 2,460 Climbing Albuquerque Center
07:14PM 33.5878 -111.7706 76° East 357 411 16,900 2,760 Climbing Albuquerque Center
07:15PM 33.6156 -111.6397 75° East 388 447 19,700 2,640 Climbing Albuquerque Center
07:16PM 33.6453 -111.5042 76° East 410 472 22,300 2,400 Climbing Albuquerque Center
07:17PM 33.6778 -111.3486 72° East 425 489 24,600 2,220 Climbing Albuquerque Center
07:18PM 33.7158 -111.2056 66° East 441 507 26,700 1,980 Climbing Albuquerque Center
07:19PM 33.7683 -111.0606 67° East 462 532 28,600 1,740 Climbing Albuquerque Center
07:20PM 33.8206 -110.9156 68° East 469 540 30,200 1,560 Climbing Albuquerque Center
07:21PM 33.8711 -110.7625 67° East 474 545 31,800 1,680 Climbing Albuquerque Center
07:22PM 33.9253 -110.6119 67° East 479 551 33,600 1,500 Climbing Albuquerque Center
07:23PM 33.9794 -110.4589 68° East 486 559 34,900 780 Climbing Albuquerque Center
07:24PM 34.0314 -110.3031 67° East 492 566 35,200 900 Climbing Albuquerque Center
07:25PM 34.0872 -110.1469 69° East 499 574 36,700 900 Climbing Albuquerque Center
07:26PM 34.1344 -110.0006 68° East 506 582 37,000 120 Climbing Albuquerque Center
07:27PM 34.1922 -109.8267 67° East 506 582 37,000  Level Albuquerque Center
07:28PM 34.2456 -109.6725 68° East 500 575 37,000  Level Albuquerque Center
07:29PM 34.2919 -109.5356 67° East 495 570 37,000  Level Albuquerque Center
07:30PM 34.3511 -109.3686 68° East 490 564 37,000  Level Albuquerque Center
07:31PM 34.4017 -109.2164 69° East 490 564 37,000  Level Albuquerque Center
07:32PM 34.4519 -109.0536 71° East 496 571 37,000 60 Level Albuquerque Center
07:33PM 34.4958 -108.8958 71° East 496 571 37,200 660 Climbing Albuquerque Center
07:34PM 34.5417 -108.7353 74° East 496 571 38,400 900 Climbing Albuquerque Center
07:35PM 34.5789 -108.5719 72° East 496 571 39,000 300 Climbing Albuquerque Center
07:36PM 34.6219 -108.4111 71° East 496 571 39,000  Level Albuquerque Center
07:37PM 34.6672 -108.2525 73° East 496 571 39,000  Level Albuquerque Center
07:38PM 34.7081 -108.0889 71° East 496 571 39,000  Level Albuquerque Center
07:39PM 34.7528 -107.9275 72° East 496 571 39,000  Level Albuquerque Center
07:40PM 34.7928 -107.7811 72° East 502 578 39,000  Level Albuquerque Center
07:41PM 34.8350 -107.6219 72° East 496 571 39,000  Level Albuquerque Center
07:42PM 34.8811 -107.4447 72° East 496 571 39,000  Level Albuquerque Center
07:43PM 34.9231 -107.2828 71° East 496 571 39,000  Level Albuquerque Center
07:44PM 34.9644 -107.1356 72° East 501 577 39,000  Level Albuquerque Center
07:46PM 35.0511 -106.7981 66° East 493 567 39,000  Level Albuquerque Center
07:47PM 35.1086 -106.6428 66° East 493 567 39,000  Level Albuquerque Center
07:49PM 35.2150 -106.3494 65° Northeast 493 567 39,000  Level Albuquerque Center
07:50PM 35.2742 -106.1958 67° East 493 567 39,000  Level Albuquerque Center
07:51PM 35.3289 -106.0397 65° Northeast 488 562 39,000  Level Albuquerque Center
07:52PM 35.3856 -105.8911 66° East 482 555 39,000  Level Albuquerque Center
07:53PM 35.4442 -105.7319 66° East 487 560 39,000  Level Albuquerque Center
07:54PM 35.5003 -105.5778 66° East 487 560 39,000  Level Albuquerque Center
07:55PM 35.5583 -105.4208 67° East 487 560 39,000  Level Albuquerque Center
07:56PM 35.6100 -105.2686 66° East 487 560 39,000  Level Albuquerque Center
07:57PM 35.6697 -105.1036 66° East 480 552 39,000  Level Albuquerque Center
07:58PM 35.7253 -104.9511 67° East 480 552 39,000  Level Albuquerque Center
07:59PM 35.7803 -104.7931 67° East 480 552 39,000  Level Albuquerque Center
08:00PM 35.8333 -104.6403 66° East 485 558 39,000  Level Albuquerque Center
08:01PM 35.8903 -104.4844 67° East 485 558 39,000  Level Albuquerque Center
08:02PM 35.9389 -104.3417 67° East 485 558 39,000  Level Albuquerque Center
08:03PM 35.9931 -104.1831 67° East 491 565 39,000  Level Albuquerque Center
08:04PM 36.0472 -104.0242 66° East 496 571 39,000  Level Albuquerque Center
08:05PM 36.1031 -103.8650 67° East 506 582 39,000  Level Albuquerque Center
08:06PM 36.1589 -103.7031 67° East 501 577 39,000  Level Albuquerque Center
08:07PM 36.2181 -103.5278 67° East 501 577 39,100  Climbing Albuquerque Center
08:08PM 36.2714 -103.3681 67° East 502 578 39,000 -60 Descending Albuquerque Center
08:09PM 36.3264 -103.2106 68° East 502 578 39,000  Level Albuquerque Center
08:10PM 36.3792 -103.0478 67° East 502 578 39,000  Level Albuquerque Center
08:11PM 36.4281 -102.9031 68° East 500 575 39,000  Level Albuquerque Center
08:13PM 36.5492 -102.5347 68° East 501 577 39,000  Level Kansas City Center
08:14PM 36.5994 -102.3769 69° East 495 570 39,000  Level Kansas City Center
08:15PM 36.6475 -102.2189 68° East 490 564 39,000  Level Kansas City Center
08:16PM 36.7025 -102.0456 67° East 484 557 39,000  Level Kansas City Center
08:17PM 36.7561 -101.8872 68° East 484 557 39,000  Level Kansas City Center
08:18PM 36.8075 -101.7289 68° East 490 564 39,000  Level Kansas City Center
08:19PM 36.8539 -101.5850 69° East 490 564 39,000  Level Kansas City Center
08:20PM 36.9078 -101.4108 68° East 495 570 39,000  Level Kansas City Center
08:21PM 36.9589 -101.2517 70° East 495 570 39,000  Level Kansas City Center
08:22PM 37.0003 -101.1097 69° East 488 562 39,000  Level Kansas City Center
08:23PM 37.0536 -100.9319 74° East 488 562 39,000  Level Kansas City Center
08:24PM 37.0894 -100.7711 75° East 482 555 39,000  Level Kansas City Center
08:25PM 37.1228 -100.6094 73° East 482 555 39,000  Level Kansas City Center
08:26PM 37.1572 -100.4664 75° East 482 555 39,000  Level Kansas City Center
08:27PM 37.1931 -100.2919 75° East 482 555 39,000  Level Kansas City Center
08:28PM 37.2278 -100.1300 74° East 477 549 39,000  Level Kansas City Center
08:29PM 37.2594 -99.9889 75° East 469 540 39,000 -120 Level Kansas City Center
08:30PM 37.2967 -99.8139 75° East 469 540 38,800 -600 Descending Kansas City Center
08:31PM 37.3308 -99.6519 75° East 474 545 37,900 -1,020 Descending Kansas City Center
08:32PM 37.3647 -99.4894 75° East 474 545 36,800 -1,020 Descending Kansas City Center
08:33PM 37.3958 -99.3478 75° East 469 540 35,900 -960 Descending Kansas City Center
08:34PM 37.4294 -99.1850 75° East 474 545 34,900 -1,020 Descending Kansas City Center
08:35PM 37.4625 -99.0247 75° East 474 545 33,900 -960 Descending Kansas City Center
08:36PM 37.4958 -98.8619 76° East 469 540 33,000 -480 Descending Kansas City Center
08:37PM 37.5267 -98.7014 75° East 469 540 33,000  Level Kansas City Center
08:38PM 37.5592 -98.5433 76° East 469 540 33,000  Level Kansas City Center
08:39PM 37.5894 -98.3850 76° East 469 540 33,000  Level Kansas City Center
08:40PM 37.6217 -98.2242 77° East 469 540 33,000  Level Kansas City Center
08:41PM 37.6517 -98.0578 76° East 469 540 33,000  Level Kansas City Center
08:42PM 37.6861 -97.8833 75° East 469 540 33,000  Level Kansas City Center
08:43PM 37.7150 -97.7431 76° East 469 540 33,000  Level Kansas City Center
08:44PM 37.7486 -97.5711 78° East 462 532 33,000  Level Kansas City Center
08:45PM 37.7733 -97.4197 77° East 473 544 33,000  Level Kansas City Center
08:46PM 37.8022 -97.2631 77° East 473 544 33,000  Level Kansas City Center
08:47PM 37.8308 -97.1011 77° East 468 539 33,000  Level Kansas City Center
08:48PM 37.8592 -96.9417 77° East 468 539 33,000  Level Kansas City Center
08:49PM 37.8872 -96.7819 77° East 468 539 33,000  Level Kansas City Center
08:50PM 37.9153 -96.6222 78° East 468 539 33,000  Level Kansas City Center
08:51PM 37.9431 -96.4600 78° East 468 539 33,000  Level Kansas City Center
08:52PM 37.9706 -96.3000 84° East 468 539 33,000  Level Kansas City Center
08:53PM 37.9833 -96.1394 87° East 468 539 33,000  Level Kansas City Center
08:54PM 37.9897 -95.9736 87° East 468 539 33,000  Level Kansas City Center
08:55PM 37.9958 -95.8103 88° East 457 526 33,000  Level Kansas City Center
08:56PM 37.9997 -95.6339 87° East 462 532 33,000  Level Kansas City Center
08:57PM 38.0050 -95.4864 102° East 462 532 33,000  Level Kansas City Center
08:58PM 37.9750 -95.3069 103° East 457 526 33,000  Level Kansas City Center
08:59PM 37.9489 -95.1617 100° East 454 522 33,000  Level Kansas City Center
09:00PM 37.9247 -94.9958 103° East 454 522 33,000  Level Kansas City Center
09:01PM 37.9000 -94.8561 101° East 448 516 33,000  Level Kansas City Center
09:02PM 37.8714 -94.6769 104° East 462 532 33,000  Level Kansas City Center
09:03PM 37.8422 -94.5244 97° East 454 522 33,100 600 Climbing Kansas City Center
09:04PM 37.8275 -94.3825 101° East 454 522 34,200 900 Climbing Kansas City Center
09:05PM 37.8022 -94.2169 98° East 459 528 35,000 360 Climbing Kansas City Center
09:06PM 37.7831 -94.0514 63° Northeast 470 541 35,000 840 Level Kansas City Center
09:07PM 37.8447 -93.9011 56° Northeast 450 518 36,700 1,500 Climbing Kansas City Center
09:08PM 37.9150 -93.7689 55° Northeast 445 512 38,100 1,140 Climbing Kansas City Center
09:09PM 37.9914 -93.6311 60° Northeast 455 524 39,000 420 Climbing Kansas City Center
09:10PM 38.0569 -93.4853 59° Northeast 466 536 39,000  Level Kansas City Center
09:11PM 38.1244 -93.3447 57° Northeast 471 542 39,000  Level Kansas City Center
09:12PM 38.1981 -93.2008 58° Northeast 476 548 39,000  Level Kansas City Center
09:13PM 38.2692 -93.0542 58° Northeast 481 554 39,000  Level Kansas City Center
09:14PM 38.3425 -92.9069 58° Northeast 481 554 39,000  Level Kansas City Center
09:15PM 38.4133 -92.7625 58° Northeast 481 554 39,000  Level Kansas City Center
09:16PM 38.4922 -92.5986 57° Northeast 481 554 39,000  Level Kansas City Center
09:17PM 38.5669 -92.4508 59° Northeast 481 554 39,000  Level Kansas City Center
09:18PM 38.6353 -92.3025 59° Northeast 481 554 39,000  Level Kansas City Center
09:19PM 38.7033 -92.1569 57° Northeast 481 554 39,000  Level Kansas City Center
09:20PM 38.7756 -92.0133 60° Northeast 481 554 39,000  Level Kansas City Center
09:21PM 38.8431 -91.8644 59° Northeast 476 548 39,000  Level Kansas City Center
09:22PM 38.9106 -91.7181 59° Northeast 476 548 39,000  Level Kansas City Center
09:23PM 38.9781 -91.5739 59° Northeast 476 548 39,000  Level Kansas City Center
09:24PM 39.0453 -91.4294 59° Northeast 476 548 39,000  Level Kansas City Center
09:25PM 39.1125 -91.2850 58° Northeast 476 548 39,000  Level Kansas City Center
09:26PM 39.1814 -91.1425 61° Northeast 471 542 39,000  Level Kansas City Center
09:27PM 39.2381 -91.0111 59° Northeast 471 542 39,000  Level Kansas City Center
09:28PM 39.3125 -90.8494 60° Northeast 471 542 39,000  Level Kansas City Center
09:29PM 39.3711 -90.7203 59° Northeast 471 542 39,000  Level Kansas City Center
09:30PM 39.4450 -90.5603 59° Northeast 466 536 39,000  Level Kansas City Center
09:31PM 39.5053 -90.4281 61° Northeast 471 542 39,000  Level Kansas City Center
09:32PM 39.5689 -90.2817 59° Northeast 471 542 39,000  Level Kansas City Center
09:33PM 39.6444 -90.1156 60° Northeast 478 550 39,000  Level Kansas City Center
09:35PM 39.7919 -89.7822 65° Northeast 470 541 39,000  Level Chicago Center
09:36PM 39.8486 -89.6258 73° East 465 535 39,000  Level Chicago Center
09:37PM 39.8864 -89.4608 74° East 465 535 39,000  Level Chicago Center
09:38PM 39.9242 -89.2931 75° East 470 541 39,000  Level Chicago Center
09:39PM 39.9592 -89.1253 74° East 475 547 39,000  Level Chicago Center
09:40PM 39.9964 -88.9569 74° East 475 547 39,000  Level Chicago Center
09:41PM 40.0331 -88.7886 75° East 475 547 39,000  Level Chicago Center
09:42PM 40.0678 -88.6231 73° East 475 547 39,000  Level Chicago Center
09:43PM 40.1061 -88.4569 74° East 475 547 39,000 -300 Level Chicago Center
09:44PM 40.1422 -88.2908 77° East 475 547 38,400 -840 Descending Chicago Center
09:45PM 40.1736 -88.1164 72° East 461 531 37,400 -900 Descending Chicago Center
09:46PM 40.2117 -87.9608 75° East 462 532 36,600 -1,020 Descending Chicago Center
09:47PM 40.2508 -87.7722 76° East 479 551 35,400 -1,140 Descending Chicago Center
09:48PM 40.2817 -87.6081 69° East 473 544 34,400 -1,020 Descending Chicago Center
09:49PM 40.3292 -87.4489 68° East 473 544 33,400 -720 Descending Chicago Center
09:50PM 40.3767 -87.2922 69° East 461 531 33,000 -240 Descending Chicago Center
09:51PM 40.4178 -87.1519 69° East 455 524 33,000  Level Chicago Center
09:52PM 40.4647 -86.9947 69° East 460 529 33,000  Level Chicago Center
09:53PM 40.5111 -86.8375 69° East 455 524 33,000  Level Chicago Center
09:54PM 40.5575 -86.6772 68° East 455 524 33,000 -540 Level Chicago Center
09:55PM 40.6058 -86.5192 69° East 455 524 32,000 -1,020 Descending Chicago Center
09:56PM 40.6556 -86.3447 69° East 455 524 31,000 -1,020 Descending Chicago Center
09:57PM 40.7014 -86.1836 70° East 457 526 30,000 -1,080 Descending Chicago Center
09:58PM 40.7450 -86.0281 69° East 451 519 28,900 -1,080 Descending Chicago Center
09:59PM 40.7903 -85.8722 69° East 451 519 27,900 -1,020 Descending Chicago Center
10:00PM 40.8356 -85.7161 70° East 458 527 26,900 -1,020 Descending Chicago Center
10:01PM 40.8783 -85.5628 70° East 446 513 25,900 -1,320 Descending Chicago Center
10:02PM 40.9192 -85.4144 70° East 441 507 24,300 -1,380 Descending Chicago Center
10:03PM 40.9600 -85.2692 58° Northeast 428 493 23,200 -960 Descending Chicago Center
10:04PM 41.0142 -85.1528 40° Northeast 416 479 22,400 -780 Descending Chicago Center
10:06PM 41.1753 -84.9700 40° Northeast 408 470 21,000 -480 Descending Cleveland Center
10:07PM 41.2644 -84.8708 39° Northeast 391 450 21,000  Level Cleveland Center
10:08PM 41.3450 -84.7850 47° Northeast 383 441 21,000  Level Cleveland Center
10:09PM 41.4175 -84.6817 50° Northeast 377 434 21,000  Level Cleveland Center
10:10PM 41.4861 -84.5722 51° Northeast 377 434 21,000 -780 Level Cleveland Center
10:11PM 41.5500 -84.4681 49° Northeast 377 434 19,500 -1,500 Descending Cleveland Center
10:12PM 41.6161 -84.3664 50° Northeast 368 423 18,000 -1,740 Descending Cleveland Center
10:13PM 41.6775 -84.2697 50° Northeast 358 412 16,100 -1,920 Descending Cleveland Center
10:14PM 41.7392 -84.1703 50° Northeast 348 400 14,200 -1,800 Descending Cleveland Center
10:15PM 41.8006 -84.0736 51° Northeast 343 395 12,500 -1,140 Descending Cleveland Center
10:16PM 41.8531 -83.9872 47° Northeast 343 395 12,000 -240 Descending Cleveland Center
10:17PM 41.9075 -83.9092 50° Northeast 319 367 12,100  Climbing Cleveland Center
10:18PM 41.9708 -83.8092 54° Northeast 308 354 12,100 -60 Level Cleveland Center
10:19PM 42.0169 -83.7247 50° Northeast 298 343 12,000 -60 Descending Cleveland Center
10:20PM 42.0692 -83.6406 45° Northeast 293 337 12,000 -60 Level Cleveland Center
10:21PM 42.1256 -83.5647 29° Northeast 257 296 11,900 -660 Descending Cleveland Center
10:22PM 42.1786 -83.5253 29° Northeast 241 277 10,800 -1,320 Descending Cleveland Center
10:23PM 42.2444 -83.4750 27° Northeast 238 274 9,300 -1,320 Descending Cleveland Center
10:24PM 42.3019 -83.4356 26° Northeast 239 275 8,000 -1,080 Descending Cleveland Center
10:25PM 42.3547 -83.4014 30° Northeast 226 260 7,300 -960 Descending Cleveland Center
10:26PM 42.4164 -83.3536 109° East 186 214 5,900 -1,440 Descending Cleveland Center
10:27PM 42.4031 -83.3022 167° South 211 243 4,300 -1,500 Descending Cleveland Center
10:28PM 42.3533 -83.2861 167° South 164 189 3,200 -1,140 Descending Cleveland Center